Terminal Aerodrome Forecast
Issued by NWS

Home | Current Version | Previous Version | Text Only | Print | Product List | Glossary On
Versions: 1 2 3 4 5 6 7 8 9 10 11 12 13 14
000
FTUS43 KGRR 241723
TAFBTL
TAF
KBTL 241723Z 2418/2518 23016G24KT P6SM SKC
     FM250100 22007KT 4SM BR VCTS OVC015CB
     FM250300 20007KT 2SM -TSRA BR OVC009CB
     FM250600 20008KT 1 1/2SM BR VCTS OVC004CB
     FM250900 07005KT 4SM -RA BR OVC003
     FM251100 04005KT 1 1/2SM -RA BR OVC003
     FM251400 06006KT 1/2SM -RA FG VV001=

USA.gov is the U.S. government's official web portal to all federal, state and local government web resources and services.